sensor_id;sensor_type;location;lat;lon;timestamp;P1;durP1;ratioP1;P2;durP2;ratioP2
36257;SDS011;22294;52.044;4.582;2022-08-03T00:00:51;8.55;;;2.17;;
36257;SDS011;22294;52.044;4.582;2022-08-03T00:03:17;9.90;;;2.30;;
36257;SDS011;22294;52.044;4.582;2022-08-03T00:05:42;12.13;;;2.40;;
36257;SDS011;22294;52.044;4.582;2022-08-03T00:08:07;9.75;;;2.80;;
36257;SDS011;22294;52.044;4.582;2022-08-03T00:10:33;11.60;;;2.97;;
36257;SDS011;22294;52.044;4.582;2022-08-03T00:12:58;9.00;;;2.10;;
36257;SDS011;22294;52.044;4.582;2022-08-03T00:15:23;11.70;;;2.40;;
36257;SDS011;22294;52.044;4.582;2022-08-03T00:17:48;17.00;;;2.50;;
36257;SDS011;22294;52.044;4.582;2022-08-03T00:20:14;11.10;;;2.30;;
36257;SDS011;22294;52.044;4.582;2022-08-03T00:22:39;9.63;;;2.30;;
36257;SDS011;22294;52.044;4.582;2022-08-03T00:25:04;8.53;;;2.27;;
36257;SDS011;22294;52.044;4.582;2022-08-03T00:27:30;13.60;;;2.33;;
36257;SDS011;22294;52.044;4.582;2022-08-03T00:29:55;9.90;;;2.23;;
36257;SDS011;22294;52.044;4.582;2022-08-03T00:32:20;10.43;;;2.80;;
36257;SDS011;22294;52.044;4.582;2022-08-03T00:34:46;9.50;;;2.13;;
36257;SDS011;22294;52.044;4.582;2022-08-03T00:37:11;10.95;;;2.35;;
36257;SDS011;22294;52.044;4.582;2022-08-03T00:39:36;10.05;;;2.70;;
36257;SDS011;22294;52.044;4.582;2022-08-03T00:42:02;13.27;;;1.92;;
36257;SDS011;22294;52.044;4.582;2022-08-03T00:44:28;8.73;;;2.22;;
36257;SDS011;22294;52.044;4.582;2022-08-03T00:46:54;11.77;;;2.25;;
36257;SDS011;22294;52.044;4.582;2022-08-03T00:49:19;7.90;;;2.30;;
36257;SDS011;22294;52.044;4.582;2022-08-03T00:51:44;9.30;;;2.65;;
36257;SDS011;22294;52.044;4.582;2022-08-03T00:54:10;11.57;;;2.33;;
36257;SDS011;22294;52.044;4.582;2022-08-03T00:56:36;13.00;;;2.90;;
36257;SDS011;22294;52.044;4.582;2022-08-03T00:59:01;11.05;;;2.63;;
36257;SDS011;22294;52.044;4.582;2022-08-03T01:01:27;16.17;;;2.60;;
36257;SDS011;22294;52.044;4.582;2022-08-03T01:03:52;8.68;;;2.10;;
36257;SDS011;22294;52.044;4.582;2022-08-03T01:06:19;11.90;;;1.98;;
36257;SDS011;22294;52.044;4.582;2022-08-03T01:11:41;13.02;;;2.90;;
36257;SDS011;22294;52.044;4.582;2022-08-03T01:17:33;8.07;;;2.60;;
36257;SDS011;22294;52.044;4.582;2022-08-03T01:20:07;11.82;;;2.72;;
36257;SDS011;22294;52.044;4.582;2022-08-03T01:22:48;7.00;;;2.20;;
36257;SDS011;22294;52.044;4.582;2022-08-03T01:31:21;8.10;;;1.95;;
36257;SDS011;22294;52.044;4.582;2022-08-03T01:36:21;13.88;;;2.38;;
36257;SDS011;22294;52.044;4.582;2022-08-03T01:38:49;13.47;;;2.70;;
36257;SDS011;22294;52.044;4.582;2022-08-03T01:41:20;10.65;;;2.13;;
36257;SDS011;22294;52.044;4.582;2022-08-03T01:43:49;9.77;;;2.78;;
36257;SDS011;22294;52.044;4.582;2022-08-03T01:46:17;6.20;;;2.15;;
36257;SDS011;22294;52.044;4.582;2022-08-03T01:48:45;10.32;;;2.40;;
36257;SDS011;22294;52.044;4.582;2022-08-03T01:51:12;7.50;;;2.40;;
36257;SDS011;22294;52.044;4.582;2022-08-03T01:53:40;9.27;;;2.47;;
36257;SDS011;22294;52.044;4.582;2022-08-03T01:56:09;8.23;;;2.38;;
36257;SDS011;22294;52.044;4.582;2022-08-03T01:58:35;9.70;;;2.33;;
36257;SDS011;22294;52.044;4.582;2022-08-03T02:01:02;6.50;;;2.00;;
36257;SDS011;22294;52.044;4.582;2022-08-03T02:03:28;10.05;;;2.58;;
36257;SDS011;22294;52.044;4.582;2022-08-03T02:05:57;10.40;;;2.20;;
36257;SDS011;22294;52.044;4.582;2022-08-03T02:08:24;9.07;;;2.30;;
36257;SDS011;22294;52.044;4.582;2022-08-03T02:10:54;10.68;;;2.38;;
36257;SDS011;22294;52.044;4.582;2022-08-03T02:13:22;9.10;;;2.10;;
36257;SDS011;22294;52.044;4.582;2022-08-03T02:15:48;12.43;;;2.40;;
36257;SDS011;22294;52.044;4.582;2022-08-03T02:18:17;11.25;;;2.63;;
36257;SDS011;22294;52.044;4.582;2022-08-03T02:20:44;12.07;;;2.95;;
36257;SDS011;22294;52.044;4.582;2022-08-03T02:23:10;7.00;;;2.28;;
36257;SDS011;22294;52.044;4.582;2022-08-03T02:25:38;8.52;;;2.25;;
36257;SDS011;22294;52.044;4.582;2022-08-03T02:28:07;9.80;;;2.28;;
36257;SDS011;22294;52.044;4.582;2022-08-03T02:30:36;7.70;;;2.17;;
36257;SDS011;22294;52.044;4.582;2022-08-03T02:33:06;11.70;;;2.63;;
36257;SDS011;22294;52.044;4.582;2022-08-03T02:35:36;9.40;;;2.67;;
36257;SDS011;22294;52.044;4.582;2022-08-03T02:38:04;8.77;;;2.70;;
36257;SDS011;22294;52.044;4.582;2022-08-03T02:40:34;14.20;;;2.45;;
36257;SDS011;22294;52.044;4.582;2022-08-03T02:43:08;10.02;;;2.38;;
36257;SDS011;22294;52.044;4.582;2022-08-03T02:45:37;13.18;;;2.38;;
36257;SDS011;22294;52.044;4.582;2022-08-03T02:48:07;12.75;;;3.20;;
36257;SDS011;22294;52.044;4.582;2022-08-03T02:50:35;8.73;;;2.25;;
36257;SDS011;22294;52.044;4.582;2022-08-03T02:53:01;11.40;;;2.30;;
36257;SDS011;22294;52.044;4.582;2022-08-03T02:55:27;8.90;;;2.58;;
36257;SDS011;22294;52.044;4.582;2022-08-03T02:57:53;10.45;;;2.60;;
36257;SDS011;22294;52.044;4.582;2022-08-03T03:00:20;12.45;;;2.65;;
36257;SDS011;22294;52.044;4.582;2022-08-03T03:02:47;14.20;;;2.65;;
36257;SDS011;22294;52.044;4.582;2022-08-03T03:05:12;14.88;;;2.47;;
36257;SDS011;22294;52.044;4.582;2022-08-03T03:07:39;11.65;;;2.35;;
36257;SDS011;22294;52.044;4.582;2022-08-03T03:10:06;9.90;;;2.42;;
36257;SDS011;22294;52.044;4.582;2022-08-03T03:12:32;13.45;;;2.78;;
36257;SDS011;22294;52.044;4.582;2022-08-03T03:15:04;10.30;;;2.75;;
36257;SDS011;22294;52.044;4.582;2022-08-03T03:17:30;9.68;;;2.72;;
36257;SDS011;22294;52.044;4.582;2022-08-03T03:19:57;12.65;;;3.35;;
36257;SDS011;22294;52.044;4.582;2022-08-03T03:22:23;7.35;;;2.60;;
36257;SDS011;22294;52.044;4.582;2022-08-03T03:24:48;10.85;;;2.60;;
36257;SDS011;22294;52.044;4.582;2022-08-03T03:27:15;10.77;;;2.60;;
36257;SDS011;22294;52.044;4.582;2022-08-03T03:29:41;9.60;;;2.60;;
36257;SDS011;22294;52.044;4.582;2022-08-03T03:32:07;11.90;;;2.70;;
36257;SDS011;22294;52.044;4.582;2022-08-03T03:34:33;10.82;;;2.65;;
36257;SDS011;22294;52.044;4.582;2022-08-03T03:36:58;9.98;;;2.78;;
36257;SDS011;22294;52.044;4.582;2022-08-03T03:39:23;13.38;;;2.90;;
36257;SDS011;22294;52.044;4.582;2022-08-03T03:41:49;11.48;;;2.55;;
36257;SDS011;22294;52.044;4.582;2022-08-03T03:44:15;10.95;;;2.85;;
36257;SDS011;22294;52.044;4.582;2022-08-03T03:46:40;13.13;;;3.17;;
36257;SDS011;22294;52.044;4.582;2022-08-03T03:49:06;12.90;;;2.33;;
36257;SDS011;22294;52.044;4.582;2022-08-03T03:51:32;8.52;;;2.60;;
36257;SDS011;22294;52.044;4.582;2022-08-03T03:53:59;11.27;;;2.90;;
36257;SDS011;22294;52.044;4.582;2022-08-03T03:56:27;11.15;;;3.17;;
36257;SDS011;22294;52.044;4.582;2022-08-03T03:58:52;14.43;;;2.63;;
36257;SDS011;22294;52.044;4.582;2022-08-03T04:01:18;12.23;;;3.10;;
36257;SDS011;22294;52.044;4.582;2022-08-03T04:03:44;11.13;;;2.60;;
36257;SDS011;22294;52.044;4.582;2022-08-03T04:06:09;14.55;;;3.08;;
36257;SDS011;22294;52.044;4.582;2022-08-03T04:08:54;10.75;;;2.85;;
36257;SDS011;22294;52.044;4.582;2022-08-03T04:11:52;12.82;;;2.70;;
36257;SDS011;22294;52.044;4.582;2022-08-03T04:14:24;12.35;;;2.83;;
36257;SDS011;22294;52.044;4.582;2022-08-03T04:16:55;13.15;;;2.55;;
36257;SDS011;22294;52.044;4.582;2022-08-03T04:19:27;14.23;;;2.90;;
36257;SDS011;22294;52.044;4.582;2022-08-03T04:21:59;13.75;;;3.03;;
36257;SDS011;22294;52.044;4.582;2022-08-03T04:24:28;10.95;;;2.70;;
36257;SDS011;22294;52.044;4.582;2022-08-03T04:27:04;17.50;;;3.40;;
36257;SDS011;22294;52.044;4.582;2022-08-03T04:29:34;12.45;;;3.03;;
36257;SDS011;22294;52.044;4.582;2022-08-03T04:32:02;14.10;;;2.80;;
36257;SDS011;22294;52.044;4.582;2022-08-03T04:34:30;12.77;;;2.97;;
36257;SDS011;22294;52.044;4.582;2022-08-03T04:36:58;13.70;;;3.30;;
36257;SDS011;22294;52.044;4.582;2022-08-03T04:39:26;8.82;;;2.78;;
36257;SDS011;22294;52.044;4.582;2022-08-03T04:41:54;15.38;;;3.17;;
36257;SDS011;22294;52.044;4.582;2022-08-03T04:44:23;12.27;;;3.00;;
36257;SDS011;22294;52.044;4.582;2022-08-03T04:46:50;12.10;;;2.97;;
36257;SDS011;22294;52.044;4.582;2022-08-03T04:49:17;10.88;;;2.78;;
36257;SDS011;22294;52.044;4.582;2022-08-03T04:51:45;8.00;;;2.53;;
36257;SDS011;22294;52.044;4.582;2022-08-03T04:54:11;14.18;;;3.10;;
36257;SDS011;22294;52.044;4.582;2022-08-03T04:56:41;11.88;;;2.80;;
36257;SDS011;22294;52.044;4.582;2022-08-03T04:59:07;12.00;;;2.72;;
36257;SDS011;22294;52.044;4.582;2022-08-03T05:01:33;13.20;;;3.60;;
36257;SDS011;22294;52.044;4.582;2022-08-03T05:03:59;15.65;;;3.42;;
36257;SDS011;22294;52.044;4.582;2022-08-03T05:06:24;11.70;;;3.53;;
36257;SDS011;22294;52.044;4.582;2022-08-03T05:08:50;8.77;;;2.75;;
36257;SDS011;22294;52.044;4.582;2022-08-03T05:11:15;14.98;;;3.10;;
36257;SDS011;22294;52.044;4.582;2022-08-03T05:13:41;10.20;;;3.67;;
36257;SDS011;22294;52.044;4.582;2022-08-03T05:16:07;9.63;;;3.10;;
36257;SDS011;22294;52.044;4.582;2022-08-03T05:18:32;12.57;;;3.45;;
36257;SDS011;22294;52.044;4.582;2022-08-03T05:20:58;13.18;;;3.65;;
36257;SDS011;22294;52.044;4.582;2022-08-03T05:23:23;15.40;;;3.75;;
36257;SDS011;22294;52.044;4.582;2022-08-03T05:25:48;13.73;;;2.80;;
36257;SDS011;22294;52.044;4.582;2022-08-03T05:28:14;8.40;;;2.75;;
36257;SDS011;22294;52.044;4.582;2022-08-03T05:30:39;12.90;;;3.58;;
36257;SDS011;22294;52.044;4.582;2022-08-03T05:33:04;9.38;;;3.10;;
36257;SDS011;22294;52.044;4.582;2022-08-03T05:35:30;14.20;;;3.38;;
36257;SDS011;22294;52.044;4.582;2022-08-03T05:37:56;12.57;;;3.45;;
36257;SDS011;22294;52.044;4.582;2022-08-03T05:40:21;14.15;;;3.13;;
36257;SDS011;22294;52.044;4.582;2022-08-03T05:42:47;14.65;;;3.40;;
36257;SDS011;22294;52.044;4.582;2022-08-03T05:45:12;9.73;;;3.58;;
36257;SDS011;22294;52.044;4.582;2022-08-03T05:50:08;17.33;;;4.10;;
36257;SDS011;22294;52.044;4.582;2022-08-03T05:52:35;16.23;;;3.80;;
36257;SDS011;22294;52.044;4.582;2022-08-03T05:55:00;11.68;;;4.80;;
36257;SDS011;22294;52.044;4.582;2022-08-03T05:57:25;22.33;;;6.33;;
36257;SDS011;22294;52.044;4.582;2022-08-03T05:59:51;14.30;;;5.55;;
36257;SDS011;22294;52.044;4.582;2022-08-03T06:02:16;19.57;;;7.30;;
36257;SDS011;22294;52.044;4.582;2022-08-03T06:04:41;16.58;;;7.28;;
36257;SDS011;22294;52.044;4.582;2022-08-03T06:07:06;22.08;;;7.35;;
36257;SDS011;22294;52.044;4.582;2022-08-03T06:09:32;19.30;;;8.30;;
36257;SDS011;22294;52.044;4.582;2022-08-03T06:11:57;22.20;;;8.48;;
36257;SDS011;22294;52.044;4.582;2022-08-03T06:14:22;22.67;;;9.07;;
36257;SDS011;22294;52.044;4.582;2022-08-03T06:16:47;18.33;;;8.40;;
36257;SDS011;22294;52.044;4.582;2022-08-03T06:19:13;19.70;;;9.15;;
36257;SDS011;22294;52.044;4.582;2022-08-03T06:21:38;23.70;;;9.10;;
36257;SDS011;22294;52.044;4.582;2022-08-03T06:24:03;16.70;;;9.00;;
36257;SDS011;22294;52.044;4.582;2022-08-03T06:26:29;20.05;;;9.32;;
36257;SDS011;22294;52.044;4.582;2022-08-03T06:28:54;18.52;;;8.80;;
36257;SDS011;22294;52.044;4.582;2022-08-03T06:31:23;20.95;;;9.23;;
36257;SDS011;22294;52.044;4.582;2022-08-03T06:33:52;21.20;;;8.80;;
36257;SDS011;22294;52.044;4.582;2022-08-03T06:36:17;21.25;;;10.30;;
36257;SDS011;22294;52.044;4.582;2022-08-03T06:38:42;18.83;;;10.33;;
36257;SDS011;22294;52.044;4.582;2022-08-03T06:41:07;22.70;;;11.73;;
36257;SDS011;22294;52.044;4.582;2022-08-03T06:43:33;18.10;;;11.85;;
36257;SDS011;22294;52.044;4.582;2022-08-03T06:46:01;24.80;;;13.80;;
36257;SDS011;22294;52.044;4.582;2022-08-03T06:48:29;20.33;;;12.25;;
36257;SDS011;22294;52.044;4.582;2022-08-03T06:50:55;21.50;;;11.05;;
36257;SDS011;22294;52.044;4.582;2022-08-03T06:53:20;20.50;;;11.07;;
36257;SDS011;22294;52.044;4.582;2022-08-03T06:55:45;22.13;;;11.03;;
36257;SDS011;22294;52.044;4.582;2022-08-03T06:58:10;24.23;;;11.10;;
36257;SDS011;22294;52.044;4.582;2022-08-03T07:00:36;20.75;;;10.93;;
36257;SDS011;22294;52.044;4.582;2022-08-03T07:03:01;21.88;;;10.40;;
36257;SDS011;22294;52.044;4.582;2022-08-03T07:05:26;20.77;;;11.25;;
36257;SDS011;22294;52.044;4.582;2022-08-03T07:07:56;27.45;;;12.32;;
36257;SDS011;22294;52.044;4.582;2022-08-03T07:10:23;19.27;;;12.43;;
36257;SDS011;22294;52.044;4.582;2022-08-03T07:12:48;23.70;;;14.73;;
36257;SDS011;22294;52.044;4.582;2022-08-03T07:15:13;26.87;;;14.37;;
36257;SDS011;22294;52.044;4.582;2022-08-03T07:17:39;26.87;;;15.20;;
36257;SDS011;22294;52.044;4.582;2022-08-03T07:20:05;20.77;;;13.70;;
36257;SDS011;22294;52.044;4.582;2022-08-03T07:22:31;24.25;;;14.98;;
36257;SDS011;22294;52.044;4.582;2022-08-03T07:24:57;23.83;;;15.65;;
36257;SDS011;22294;52.044;4.582;2022-08-03T07:27:23;26.60;;;15.65;;
36257;SDS011;22294;52.044;4.582;2022-08-03T07:29:50;26.60;;;16.58;;
36257;SDS011;22294;52.044;4.582;2022-08-03T07:32:16;25.40;;;16.80;;
36257;SDS011;22294;52.044;4.582;2022-08-03T07:34:41;26.98;;;16.35;;
36257;SDS011;22294;52.044;4.582;2022-08-03T07:37:06;26.13;;;17.02;;
36257;SDS011;22294;52.044;4.582;2022-08-03T07:39:32;28.58;;;17.23;;
36257;SDS011;22294;52.044;4.582;2022-08-03T07:41:57;28.05;;;17.27;;
36257;SDS011;22294;52.044;4.582;2022-08-03T07:44:22;21.23;;;15.43;;
36257;SDS011;22294;52.044;4.582;2022-08-03T07:46:48;26.13;;;15.50;;
36257;SDS011;22294;52.044;4.582;2022-08-03T07:49:14;23.65;;;16.30;;
36257;SDS011;22294;52.044;4.582;2022-08-03T07:51:40;22.52;;;15.55;;
36257;SDS011;22294;52.044;4.582;2022-08-03T07:54:05;23.10;;;16.08;;
36257;SDS011;22294;52.044;4.582;2022-08-03T07:56:31;23.50;;;13.60;;
36257;SDS011;22294;52.044;4.582;2022-08-03T07:58:57;22.33;;;13.60;;
36257;SDS011;22294;52.044;4.582;2022-08-03T08:01:22;21.23;;;13.73;;
36257;SDS011;22294;52.044;4.582;2022-08-03T08:03:50;24.63;;;13.55;;
36257;SDS011;22294;52.044;4.582;2022-08-03T08:06:33;18.88;;;13.85;;
36257;SDS011;22294;52.044;4.582;2022-08-03T08:09:09;20.45;;;14.40;;
36257;SDS011;22294;52.044;4.582;2022-08-03T08:11:35;22.67;;;13.65;;
36257;SDS011;22294;52.044;4.582;2022-08-03T08:14:01;21.35;;;13.38;;
36257;SDS011;22294;52.044;4.582;2022-08-03T08:16:26;23.55;;;13.68;;
36257;SDS011;22294;52.044;4.582;2022-08-03T08:18:52;21.67;;;13.30;;
36257;SDS011;22294;52.044;4.582;2022-08-03T08:21:17;21.40;;;14.10;;
36257;SDS011;22294;52.044;4.582;2022-08-03T08:23:43;24.73;;;15.38;;
36257;SDS011;22294;52.044;4.582;2022-08-03T08:26:08;22.02;;;13.48;;
36257;SDS011;22294;52.044;4.582;2022-08-03T08:28:33;24.45;;;14.15;;
36257;SDS011;22294;52.044;4.582;2022-08-03T08:30:59;22.67;;;12.90;;
36257;SDS011;22294;52.044;4.582;2022-08-03T08:33:25;22.90;;;14.35;;
36257;SDS011;22294;52.044;4.582;2022-08-03T08:35:51;23.13;;;14.27;;
36257;SDS011;22294;52.044;4.582;2022-08-03T08:38:17;23.15;;;14.00;;
36257;SDS011;22294;52.044;4.582;2022-08-03T08:40:42;25.00;;;14.93;;
36257;SDS011;22294;52.044;4.582;2022-08-03T08:43:07;22.55;;;12.35;;
36257;SDS011;22294;52.044;4.582;2022-08-03T08:45:33;26.15;;;13.45;;
36257;SDS011;22294;52.044;4.582;2022-08-03T08:47:58;20.25;;;13.02;;
36257;SDS011;22294;52.044;4.582;2022-08-03T08:50:26;27.67;;;12.68;;
36257;SDS011;22294;52.044;4.582;2022-08-03T08:52:52;21.08;;;12.40;;
36257;SDS011;22294;52.044;4.582;2022-08-03T08:55:19;22.02;;;12.20;;
36257;SDS011;22294;52.044;4.582;2022-08-03T08:57:47;18.77;;;12.85;;
36257;SDS011;22294;52.044;4.582;2022-08-03T09:00:25;17.35;;;11.88;;
36257;SDS011;22294;52.044;4.582;2022-08-03T09:02:50;26.27;;;12.23;;
36257;SDS011;22294;52.044;4.582;2022-08-03T09:05:16;33.60;;;12.45;;
36257;SDS011;22294;52.044;4.582;2022-08-03T09:07:43;26.95;;;14.98;;
36257;SDS011;22294;52.044;4.582;2022-08-03T09:10:11;36.63;;;15.00;;
36257;SDS011;22294;52.044;4.582;2022-08-03T09:12:37;17.45;;;11.60;;
36257;SDS011;22294;52.044;4.582;2022-08-03T09:17:46;19.38;;;11.32;;
36257;SDS011;22294;52.044;4.582;2022-08-03T09:20:11;23.38;;;11.02;;
36257;SDS011;22294;52.044;4.582;2022-08-03T09:22:56;21.55;;;12.15;;
36257;SDS011;22294;52.044;4.582;2022-08-03T09:25:33;17.63;;;11.02;;
36257;SDS011;22294;52.044;4.582;2022-08-03T09:28:07;21.85;;;10.90;;
36257;SDS011;22294;52.044;4.582;2022-08-03T09:30:38;25.40;;;11.07;;
36257;SDS011;22294;52.044;4.582;2022-08-03T09:33:06;20.98;;;10.18;;
36257;SDS011;22294;52.044;4.582;2022-08-03T09:35:33;26.20;;;9.82;;
36257;SDS011;22294;52.044;4.582;2022-08-03T09:38:15;21.17;;;9.48;;
36257;SDS011;22294;52.044;4.582;2022-08-03T09:40:41;19.67;;;9.15;;
36257;SDS011;22294;52.044;4.582;2022-08-03T09:43:08;17.85;;;9.55;;
36257;SDS011;22294;52.044;4.582;2022-08-03T09:45:34;18.70;;;9.52;;
36257;SDS011;22294;52.044;4.582;2022-08-03T09:48:20;16.95;;;8.88;;
36257;SDS011;22294;52.044;4.582;2022-08-03T09:50:49;21.80;;;9.60;;
36257;SDS011;22294;52.044;4.582;2022-08-03T09:53:16;16.77;;;9.10;;
36257;SDS011;22294;52.044;4.582;2022-08-03T09:55:55;22.77;;;9.30;;
36257;SDS011;22294;52.044;4.582;2022-08-03T10:00:56;16.45;;;8.55;;
36257;SDS011;22294;52.044;4.582;2022-08-03T10:03:24;16.92;;;8.80;;
36257;SDS011;22294;52.044;4.582;2022-08-03T10:05:51;16.17;;;8.52;;
36257;SDS011;22294;52.044;4.582;2022-08-03T10:08:17;18.17;;;8.70;;
36257;SDS011;22294;52.044;4.582;2022-08-03T10:10:44;14.35;;;8.27;;
36257;SDS011;22294;52.044;4.582;2022-08-03T10:13:14;13.57;;;7.38;;
36257;SDS011;22294;52.044;4.582;2022-08-03T10:15:42;15.70;;;7.88;;
36257;SDS011;22294;52.044;4.582;2022-08-03T10:18:07;13.43;;;7.78;;
36257;SDS011;22294;52.044;4.582;2022-08-03T10:20:37;17.17;;;8.93;;
36257;SDS011;22294;52.044;4.582;2022-08-03T10:23:15;18.67;;;8.38;;
36257;SDS011;22294;52.044;4.582;2022-08-03T10:25:42;17.02;;;7.70;;
36257;SDS011;22294;52.044;4.582;2022-08-03T10:28:12;21.27;;;7.90;;
36257;SDS011;22294;52.044;4.582;2022-08-03T10:30:40;17.27;;;7.97;;
36257;SDS011;22294;52.044;4.582;2022-08-03T10:33:18;19.05;;;8.30;;
36257;SDS011;22294;52.044;4.582;2022-08-03T10:35:46;14.60;;;7.40;;
36257;SDS011;22294;52.044;4.582;2022-08-03T10:38:21;17.98;;;7.35;;
36257;SDS011;22294;52.044;4.582;2022-08-03T10:40:53;15.15;;;9.13;;
36257;SDS011;22294;52.044;4.582;2022-08-03T10:43:20;17.40;;;8.60;;
36257;SDS011;22294;52.044;4.582;2022-08-03T10:45:49;15.27;;;8.07;;
36257;SDS011;22294;52.044;4.582;2022-08-03T10:48:15;14.52;;;8.57;;
36257;SDS011;22294;52.044;4.582;2022-08-03T10:50:43;15.25;;;7.95;;
36257;SDS011;22294;52.044;4.582;2022-08-03T10:53:09;14.60;;;8.98;;
36257;SDS011;22294;52.044;4.582;2022-08-03T10:55:38;13.68;;;7.53;;
36257;SDS011;22294;52.044;4.582;2022-08-03T11:01:05;13.52;;;6.13;;
36257;SDS011;22294;52.044;4.582;2022-08-03T11:03:32;14.63;;;6.65;;
36257;SDS011;22294;52.044;4.582;2022-08-03T11:08:47;12.75;;;4.97;;
36257;SDS011;22294;52.044;4.582;2022-08-03T11:16:30;13.50;;;4.90;;
36257;SDS011;22294;52.044;4.582;2022-08-03T11:18:59;12.70;;;5.32;;
36257;SDS011;22294;52.044;4.582;2022-08-03T11:35:23;13.93;;;3.72;;
36257;SDS011;22294;52.044;4.582;2022-08-03T11:46:01;11.85;;;4.38;;
36257;SDS011;22294;52.044;4.582;2022-08-03T11:50:57;16.17;;;3.83;;
36257;SDS011;22294;52.044;4.582;2022-08-03T11:53:22;12.20;;;4.30;;
36257;SDS011;22294;52.044;4.582;2022-08-03T11:55:48;9.88;;;3.65;;
36257;SDS011;22294;52.044;4.582;2022-08-03T11:58:17;16.10;;;3.97;;
36257;SDS011;22294;52.044;4.582;2022-08-03T12:00:46;13.98;;;3.50;;
36257;SDS011;22294;52.044;4.582;2022-08-03T12:03:13;10.70;;;3.13;;
36257;SDS011;22294;52.044;4.582;2022-08-03T12:08:13;9.50;;;3.97;;
36257;SDS011;22294;52.044;4.582;2022-08-03T12:10:44;10.88;;;3.88;;
36257;SDS011;22294;52.044;4.582;2022-08-03T12:13:14;13.20;;;4.40;;
36257;SDS011;22294;52.044;4.582;2022-08-03T12:15:40;11.50;;;4.22;;
36257;SDS011;22294;52.044;4.582;2022-08-03T12:18:13;10.98;;;4.25;;
36257;SDS011;22294;52.044;4.582;2022-08-03T12:20:40;9.88;;;3.92;;
36257;SDS011;22294;52.044;4.582;2022-08-03T12:23:06;11.98;;;3.55;;
36257;SDS011;22294;52.044;4.582;2022-08-03T12:25:33;10.50;;;3.13;;
36257;SDS011;22294;52.044;4.582;2022-08-03T12:28:07;7.38;;;2.30;;
36257;SDS011;22294;52.044;4.582;2022-08-03T12:30:53;6.35;;;2.22;;
36257;SDS011;22294;52.044;4.582;2022-08-03T12:35:49;7.18;;;2.20;;
36257;SDS011;22294;52.044;4.582;2022-08-03T12:38:27;9.82;;;2.42;;
36257;SDS011;22294;52.044;4.582;2022-08-03T12:40:57;6.50;;;2.15;;
36257;SDS011;22294;52.044;4.582;2022-08-03T12:43:23;7.28;;;2.50;;
36257;SDS011;22294;52.044;4.582;2022-08-03T12:45:49;8.98;;;2.65;;
36257;SDS011;22294;52.044;4.582;2022-08-03T12:48:14;9.32;;;1.83;;
36257;SDS011;22294;52.044;4.582;2022-08-03T12:50:40;7.57;;;1.90;;
36257;SDS011;22294;52.044;4.582;2022-08-03T12:53:06;7.87;;;1.90;;
36257;SDS011;22294;52.044;4.582;2022-08-03T12:55:33;7.25;;;2.10;;
36257;SDS011;22294;52.044;4.582;2022-08-03T12:58:00;8.65;;;2.30;;
36257;SDS011;22294;52.044;4.582;2022-08-03T13:00:27;7.15;;;2.40;;
36257;SDS011;22294;52.044;4.582;2022-08-03T13:03:00;9.88;;;1.98;;
36257;SDS011;22294;52.044;4.582;2022-08-03T13:05:27;7.03;;;2.10;;
36257;SDS011;22294;52.044;4.582;2022-08-03T13:07:53;7.65;;;1.95;;
36257;SDS011;22294;52.044;4.582;2022-08-03T13:10:29;6.57;;;1.90;;
36257;SDS011;22294;52.044;4.582;2022-08-03T13:12:56;4.43;;;1.60;;
36257;SDS011;22294;52.044;4.582;2022-08-03T13:15:23;10.05;;;2.35;;
36257;SDS011;22294;52.044;4.582;2022-08-03T13:17:51;9.13;;;2.33;;
36257;SDS011;22294;52.044;4.582;2022-08-03T13:20:17;6.93;;;2.30;;
36257;SDS011;22294;52.044;4.582;2022-08-03T13:22:45;9.73;;;2.20;;
36257;SDS011;22294;52.044;4.582;2022-08-03T13:25:11;7.20;;;2.05;;
36257;SDS011;22294;52.044;4.582;2022-08-03T13:27:37;8.15;;;2.35;;
36257;SDS011;22294;52.044;4.582;2022-08-03T13:30:03;6.45;;;2.25;;
36257;SDS011;22294;52.044;4.582;2022-08-03T13:32:29;7.25;;;2.45;;
36257;SDS011;22294;52.044;4.582;2022-08-03T13:34:55;8.38;;;2.28;;
36257;SDS011;22294;52.044;4.582;2022-08-03T13:37:21;7.72;;;1.88;;
36257;SDS011;22294;52.044;4.582;2022-08-03T13:39:46;8.95;;;2.10;;
36257;SDS011;22294;52.044;4.582;2022-08-03T13:42:11;6.78;;;2.05;;
36257;SDS011;22294;52.044;4.582;2022-08-03T13:44:37;8.45;;;2.13;;
36257;SDS011;22294;52.044;4.582;2022-08-03T13:47:02;9.10;;;2.13;;
36257;SDS011;22294;52.044;4.582;2022-08-03T13:49:28;9.82;;;1.90;;
36257;SDS011;22294;52.044;4.582;2022-08-03T13:51:54;6.45;;;2.00;;
36257;SDS011;22294;52.044;4.582;2022-08-03T13:54:20;6.32;;;1.73;;
36257;SDS011;22294;52.044;4.582;2022-08-03T13:56:45;7.57;;;1.85;;
36257;SDS011;22294;52.044;4.582;2022-08-03T13:59:16;8.75;;;2.20;;
36257;SDS011;22294;52.044;4.582;2022-08-03T14:01:49;4.80;;;1.85;;
36257;SDS011;22294;52.044;4.582;2022-08-03T14:04:16;8.48;;;1.60;;
36257;SDS011;22294;52.044;4.582;2022-08-03T14:06:41;6.40;;;2.00;;
36257;SDS011;22294;52.044;4.582;2022-08-03T14:09:10;5.40;;;1.63;;
36257;SDS011;22294;52.044;4.582;2022-08-03T14:11:40;5.45;;;1.77;;
36257;SDS011;22294;52.044;4.582;2022-08-03T14:14:07;7.63;;;2.35;;
36257;SDS011;22294;52.044;4.582;2022-08-03T14:16:32;7.03;;;1.80;;
36257;SDS011;22294;52.044;4.582;2022-08-03T14:18:58;12.18;;;1.80;;
36257;SDS011;22294;52.044;4.582;2022-08-03T14:21:23;7.22;;;1.65;;
36257;SDS011;22294;52.044;4.582;2022-08-03T14:23:49;5.45;;;1.40;;
36257;SDS011;22294;52.044;4.582;2022-08-03T14:26:14;4.68;;;1.20;;
36257;SDS011;22294;52.044;4.582;2022-08-03T14:28:42;7.78;;;1.50;;
36257;SDS011;22294;52.044;4.582;2022-08-03T14:31:07;6.83;;;1.47;;
36257;SDS011;22294;52.044;4.582;2022-08-03T14:33:32;4.53;;;1.30;;
36257;SDS011;22294;52.044;4.582;2022-08-03T14:35:57;5.47;;;1.20;;
36257;SDS011;22294;52.044;4.582;2022-08-03T14:38:23;4.30;;;1.40;;
36257;SDS011;22294;52.044;4.582;2022-08-03T14:40:49;3.13;;;1.30;;
36257;SDS011;22294;52.044;4.582;2022-08-03T14:43:16;4.65;;;1.45;;
36257;SDS011;22294;52.044;4.582;2022-08-03T14:45:42;4.28;;;1.10;;
36257;SDS011;22294;52.044;4.582;2022-08-03T14:48:07;4.80;;;1.20;;
36257;SDS011;22294;52.044;4.582;2022-08-03T14:50:32;5.03;;;1.30;;
36257;SDS011;22294;52.044;4.582;2022-08-03T14:52:58;7.38;;;1.20;;
36257;SDS011;22294;52.044;4.582;2022-08-03T14:55:23;4.53;;;1.23;;
36257;SDS011;22294;52.044;4.582;2022-08-03T14:57:48;3.88;;;1.50;;
36257;SDS011;22294;52.044;4.582;2022-08-03T15:00:14;4.15;;;1.50;;
36257;SDS011;22294;52.044;4.582;2022-08-03T15:02:39;6.45;;;1.45;;
36257;SDS011;22294;52.044;4.582;2022-08-03T15:05:05;6.68;;;1.70;;
36257;SDS011;22294;52.044;4.582;2022-08-03T15:07:30;4.28;;;1.10;;
36257;SDS011;22294;52.044;4.582;2022-08-03T15:09:56;9.20;;;1.58;;
36257;SDS011;22294;52.044;4.582;2022-08-03T15:12:21;7.90;;;1.77;;
36257;SDS011;22294;52.044;4.582;2022-08-03T15:14:47;4.00;;;1.20;;
36257;SDS011;22294;52.044;4.582;2022-08-03T15:17:12;5.97;;;1.38;;
36257;SDS011;22294;52.044;4.582;2022-08-03T15:19:37;5.35;;;1.50;;
36257;SDS011;22294;52.044;4.582;2022-08-03T15:22:04;4.47;;;1.33;;
36257;SDS011;22294;52.044;4.582;2022-08-03T15:24:29;3.50;;;1.10;;
36257;SDS011;22294;52.044;4.582;2022-08-03T15:26:54;5.00;;;1.30;;
36257;SDS011;22294;52.044;4.582;2022-08-03T15:29:20;3.53;;;1.20;;
36257;SDS011;22294;52.044;4.582;2022-08-03T15:31:45;10.18;;;1.40;;
36257;SDS011;22294;52.044;4.582;2022-08-03T15:34:11;3.80;;;1.10;;
36257;SDS011;22294;52.044;4.582;2022-08-03T15:36:36;3.40;;;1.40;;
36257;SDS011;22294;52.044;4.582;2022-08-03T15:39:02;3.88;;;1.17;;